createdAt,value
2023-10-14T00:01:16.875Z,23.70
2023-10-14T00:06:21.876Z,23.70
2023-10-14T00:11:25.056Z,23.70
2023-10-14T00:16:30.025Z,23.70
2023-10-14T00:21:37.614Z,23.70
2023-10-14T00:26:39.614Z,23.60
2023-10-14T00:31:42.078Z,23.60
2023-10-14T00:36:44.633Z,23.40
2023-10-14T00:41:51.466Z,23.20
2023-10-14T00:46:55.433Z,23.10
2023-10-14T00:52:00.659Z,23.00
2023-10-14T00:57:17.597Z,22.90
2023-10-14T01:02:31.827Z,22.80
2023-10-14T01:07:33.791Z,22.60
2023-10-14T01:13:01.831Z,22.60
2023-10-14T01:18:04.064Z,22.50
2023-10-14T01:23:09.172Z,22.50
2023-10-14T01:28:14.261Z,22.50
2023-10-14T01:33:25.875Z,22.50
2023-10-14T01:38:31.696Z,22.60
2023-10-14T01:43:34.032Z,22.80
2023-10-14T01:48:39.378Z,22.90
2023-10-14T01:53:43.802Z,23.00
2023-10-14T01:58:46.443Z,23.10
2023-10-14T02:03:50.443Z,23.10
2023-10-14T02:08:53.466Z,23.20
2023-10-14T02:13:55.367Z,23.10
2023-10-14T02:19:17.587Z,22.90
2023-10-14T02:24:19.704Z,22.80
2023-10-14T02:29:25.154Z,22.70
2023-10-14T02:34:28.888Z,22.60
2023-10-14T02:39:30.704Z,22.50
2023-10-14T02:44:34.469Z,22.50
2023-10-14T02:49:43.609Z,22.50
2023-10-14T02:54:55.130Z,22.50
2023-10-14T02:59:57.662Z,22.50
2023-10-14T03:04:59.920Z,22.30
2023-10-14T03:10:35.490Z,22.20
2023-10-14T03:15:39.975Z,22.20
2023-10-14T03:20:47.105Z,22.10
2023-10-14T03:25:51.278Z,22.10
2023-10-14T03:30:58.083Z,22.10
2023-10-14T03:36:05.280Z,22.00
2023-10-14T03:41:22.821Z,22.00
2023-10-14T03:46:46.771Z,21.80
2023-10-14T03:51:50.994Z,21.80
2023-10-14T03:56:53.546Z,21.80
2023-10-14T04:01:56.348Z,21.80
2023-10-14T04:07:01.846Z,21.80
2023-10-14T04:12:11.025Z,21.80
2023-10-14T04:17:23.065Z,21.90
2023-10-14T04:22:25.306Z,22.00
2023-10-14T04:27:30.120Z,22.10
2023-10-14T04:32:43.729Z,22.10
2023-10-14T04:37:54.421Z,22.10
2023-10-14T04:42:59.300Z,21.90
2023-10-14T04:48:01.667Z,21.70
2023-10-14T04:53:06.865Z,21.50
2023-10-14T04:58:11.507Z,21.40
2023-10-14T05:03:15.343Z,21.30
2023-10-14T05:08:17.435Z,21.20
2023-10-14T05:13:26.371Z,21.00
2023-10-14T05:18:31.021Z,20.80
2023-10-14T05:23:33.551Z,20.70
2023-10-14T05:28:38.330Z,20.60
2023-10-14T05:33:40.371Z,20.60
2023-10-14T05:38:42.363Z,20.50
2023-10-14T05:43:44.210Z,20.60
2023-10-14T05:48:46.783Z,20.60
2023-10-14T05:53:49.877Z,20.50
2023-10-14T05:58:53.408Z,20.50
2023-10-14T06:03:57.361Z,20.40
2023-10-14T06:09:01.619Z,20.40
2023-10-14T06:14:04.067Z,20.40
2023-10-14T06:19:06.983Z,20.40
2023-10-14T06:24:11.966Z,20.20
2023-10-14T06:29:14.548Z,20.20
2023-10-14T06:34:16.473Z,20.10
2023-10-14T06:39:27.332Z,20.10
2023-10-14T06:44:29.242Z,20.10
2023-10-14T06:49:34.193Z,20.10
2023-10-14T06:54:37.451Z,20.20
2023-10-14T06:59:39.433Z,20.20
2023-10-14T07:04:42.323Z,20.30
2023-10-14T07:09:45.766Z,20.40
2023-10-14T07:14:48.758Z,20.30
2023-10-14T07:19:50.601Z,20.40
2023-10-14T07:24:53.759Z,20.40
2023-10-14T07:29:56.146Z,20.50
2023-10-14T07:34:58.066Z,20.40
2023-10-14T07:40:05.617Z,20.40
2023-10-14T07:45:11.463Z,20.40
2023-10-14T07:50:13.566Z,20.40
2023-10-14T07:55:23.478Z,20.40
2023-10-14T08:00:37.765Z,20.40
2023-10-14T08:05:40.782Z,20.50
2023-10-14T08:10:44.372Z,20.50
2023-10-14T08:15:49.234Z,20.60
2023-10-14T08:20:54.979Z,20.50
2023-10-14T08:25:58.245Z,20.70
2023-10-14T08:31:00.588Z,20.80
2023-10-14T08:36:02.490Z,20.80
2023-10-14T08:41:04.759Z,20.70
2023-10-14T08:46:07.242Z,20.80
2023-10-14T08:51:10.949Z,20.90
2023-10-14T08:56:13.803Z,21.10
2023-10-14T09:01:17.985Z,21.20
2023-10-14T09:06:20.451Z,21.40
2023-10-14T09:11:34.243Z,21.60
2023-10-14T09:16:37.996Z,22.40
2023-10-14T09:21:45.111Z,23.50
2023-10-14T09:26:47.331Z,24.20
2023-10-14T09:31:49.230Z,24.40
2023-10-14T09:36:53.480Z,24.60
2023-10-14T09:41:57.574Z,24.20
2023-10-14T09:47:01.027Z,23.90
2023-10-14T09:52:04.582Z,23.90
2023-10-14T09:57:11.403Z,23.80
2023-10-14T10:02:13.895Z,23.70
2023-10-14T10:07:42.293Z,23.60
2023-10-14T10:12:54.056Z,23.70
2023-10-14T10:18:07.573Z,23.80
2023-10-14T10:23:11.232Z,23.80
2023-10-14T10:28:28.606Z,23.70
2023-10-14T10:33:54.752Z,23.40
2023-10-14T10:39:07.736Z,23.30
2023-10-14T10:44:12.965Z,23.10
2023-10-14T10:49:18.124Z,23.00
2023-10-14T10:54:23.568Z,22.90
2023-10-14T10:59:26.294Z,22.90
2023-10-14T11:04:29.164Z,22.80
2023-10-14T11:09:32.275Z,22.80
2023-10-14T11:14:34.140Z,22.80
2023-10-14T11:19:36.473Z,22.50
2023-10-14T11:24:38.655Z,22.40
2023-10-14T11:29:41.933Z,22.40
2023-10-14T11:34:53.138Z,22.30
2023-10-14T11:39:56.287Z,22.10
2023-10-14T11:44:58.290Z,22.00
2023-10-14T11:50:09.332Z,21.80
2023-10-14T11:55:15.549Z,21.60
2023-10-14T12:00:21.563Z,21.60
2023-10-14T12:05:23.661Z,21.60
2023-10-14T12:10:27.501Z,21.60
2023-10-14T12:15:29.426Z,21.60
2023-10-14T12:20:31.337Z,21.70
2023-10-14T12:25:33.439Z,22.00
2023-10-14T12:30:42.398Z,22.30
2023-10-14T12:35:44.398Z,22.60
2023-10-14T12:40:46.339Z,22.60
2023-10-14T12:45:50.809Z,22.70
2023-10-14T12:50:52.747Z,22.70
2023-10-14T12:55:54.743Z,22.80
2023-10-14T13:00:57.588Z,22.80
2023-10-14T13:06:00.725Z,22.90
2023-10-14T13:11:02.761Z,23.10
2023-10-14T13:16:04.869Z,23.00
2023-10-14T13:21:08.605Z,23.20
2023-10-14T13:26:13.563Z,23.50
2023-10-14T13:31:17.220Z,23.70
2023-10-14T13:36:21.729Z,23.80
2023-10-14T13:41:24.475Z,23.70
2023-10-14T13:46:26.668Z,23.50
2023-10-14T13:51:29.486Z,23.40
2023-10-14T13:56:32.374Z,22.50
2023-10-14T14:01:34.289Z,21.80
2023-10-14T14:06:36.266Z,21.30
2023-10-14T14:11:38.181Z,21.00
2023-10-14T14:16:40.256Z,20.90
2023-10-14T14:21:46.104Z,20.60
2023-10-14T14:26:50.012Z,20.40
2023-10-14T14:31:52.309Z,20.30
2023-10-14T14:36:54.201Z,20.10
2023-10-14T14:42:01.839Z,20.00
2023-10-14T14:47:04.406Z,20.10
2023-10-14T14:52:06.436Z,20.20
2023-10-14T14:57:09.502Z,20.40
2023-10-14T15:02:11.396Z,20.50
2023-10-14T15:07:14.942Z,20.60
2023-10-14T15:12:17.334Z,20.60
2023-10-14T15:17:21.223Z,20.50
2023-10-14T15:22:23.857Z,20.30
2023-10-14T15:27:26.128Z,20.20
2023-10-14T15:32:28.163Z,20.10
2023-10-14T15:37:31.302Z,20.00
2023-10-14T15:42:34.802Z,19.90
2023-10-14T15:47:36.740Z,19.80
2023-10-14T15:52:39.726Z,19.80
2023-10-14T15:57:42.145Z,19.70
2023-10-14T16:02:45.793Z,19.40
2023-10-14T16:07:50.647Z,19.20
2023-10-14T16:12:52.567Z,19.20
2023-10-14T16:17:54.919Z,19.10
2023-10-14T16:22:58.451Z,19.00
2023-10-14T16:28:02.175Z,18.90
2023-10-14T16:33:05.934Z,18.70
2023-10-14T16:38:08.637Z,18.50
2023-10-14T16:43:10.846Z,18.40
2023-10-14T16:48:13.615Z,18.30
2023-10-14T16:53:15.948Z,18.20
2023-10-14T16:58:19.051Z,18.00
2023-10-14T17:03:23.885Z,17.70
2023-10-14T17:08:32.377Z,17.50
2023-10-14T17:13:35.868Z,17.50
2023-10-14T17:18:39.114Z,17.40
2023-10-14T17:23:41.664Z,17.50
2023-10-14T17:28:43.727Z,17.50
2023-10-14T17:33:48.192Z,17.50
2023-10-14T17:38:50.997Z,17.40
2023-10-14T17:43:52.940Z,17.30
2023-10-14T17:48:55.250Z,17.30
2023-10-14T17:53:57.431Z,17.20
2023-10-14T17:58:59.598Z,17.30
2023-10-14T18:04:02.946Z,17.40
2023-10-14T18:09:06.651Z,17.50
2023-10-14T18:14:08.532Z,17.60
2023-10-14T18:19:13.366Z,17.60
2023-10-14T18:24:15.323Z,17.60
2023-10-14T18:29:17.386Z,17.70
2023-10-14T18:34:19.302Z,17.60
2023-10-14T18:39:21.147Z,17.40
2023-10-14T18:44:22.970Z,17.30
2023-10-14T18:49:24.974Z,17.20
2023-10-14T18:54:32.597Z,17.20
2023-10-14T18:59:39.478Z,17.10
2023-10-14T19:04:42.086Z,17.10
2023-10-14T19:09:45.749Z,17.00
2023-10-14T19:14:48.981Z,16.90
2023-10-14T19:19:51.127Z,16.90
2023-10-14T19:24:53.311Z,17.00
2023-10-14T19:29:55.219Z,17.00
2023-10-14T19:34:57.060Z,17.10
2023-10-14T19:39:59.053Z,17.20
2023-10-14T19:45:03.946Z,17.20
2023-10-14T19:50:09.464Z,17.20
2023-10-14T19:55:25.570Z,17.10
2023-10-14T20:00:29.002Z,17.00
2023-10-14T20:05:37.047Z,16.90
2023-10-14T20:10:40.945Z,16.70
2023-10-14T20:15:44.164Z,16.60
2023-10-14T20:20:48.199Z,16.60
2023-10-14T20:25:53.167Z,16.60
2023-10-14T20:31:00.442Z,16.60
2023-10-14T20:36:03.653Z,16.50
2023-10-14T20:41:07.383Z,16.50
2023-10-14T20:46:12.302Z,16.40
2023-10-14T20:51:14.207Z,16.50
2023-10-14T20:56:16.564Z,16.60
2023-10-14T21:01:18.502Z,16.60
2023-10-14T21:06:22.000Z,16.60
2023-10-14T21:11:23.952Z,16.70
2023-10-14T21:16:26.139Z,16.80
2023-10-14T21:21:28.048Z,16.70
2023-10-14T21:26:36.256Z,16.60
2023-10-14T21:31:40.822Z,16.60
2023-10-14T21:36:42.760Z,16.50
2023-10-14T21:41:44.620Z,16.50
2023-10-14T21:46:46.446Z,16.50
2023-10-14T21:51:51.820Z,16.60
2023-10-14T21:56:53.824Z,16.50
2023-10-14T22:01:58.865Z,16.50
2023-10-14T22:07:00.794Z,16.50
2023-10-14T22:12:02.658Z,16.50
2023-10-14T22:17:05.899Z,16.50
2023-10-14T22:22:07.806Z,16.40
2023-10-14T22:27:09.685Z,16.40
2023-10-14T22:32:11.654Z,16.30
2023-10-14T22:37:30.348Z,16.30
2023-10-14T22:42:38.804Z,16.30
2023-10-14T22:47:45.178Z,16.30
2023-10-14T22:52:48.993Z,16.40
2023-10-14T22:57:55.932Z,16.50
2023-10-14T23:02:58.816Z,16.50
2023-10-14T23:08:02.044Z,16.50
2023-10-14T23:13:05.762Z,16.40
2023-10-14T23:18:07.884Z,16.40
2023-10-14T23:23:09.710Z,16.40
2023-10-14T23:28:14.947Z,16.30
2023-10-14T23:33:16.854Z,16.20
2023-10-14T23:38:20.521Z,16.20
2023-10-14T23:43:23.085Z,16.30
2023-10-14T23:48:25.064Z,16.30
2023-10-14T23:53:26.942Z,16.30
2023-10-14T23:58:30.082Z,16.30
